sensor_id;sensor_type;location;lat;lon;timestamp;P1;durP1;ratioP1;P2;durP2;ratioP2
10565;SDS011;5331;48.148;16.326;2022-09-03T00:02:19;3.50;;;3.20;;
10565;SDS011;5331;48.148;16.326;2022-09-03T00:04:54;3.92;;;3.20;;
10565;SDS011;5331;48.148;16.326;2022-09-03T00:07:31;3.22;;;2.92;;
10565;SDS011;5331;48.148;16.326;2022-09-03T00:10:08;3.42;;;3.08;;
10565;SDS011;5331;48.148;16.326;2022-09-03T00:12:39;3.05;;;2.75;;
10565;SDS011;5331;48.148;16.326;2022-09-03T00:15:10;3.30;;;3.00;;
10565;SDS011;5331;48.148;16.326;2022-09-03T00:17:39;3.15;;;2.95;;
10565;SDS011;5331;48.148;16.326;2022-09-03T00:20:14;3.47;;;3.17;;
10565;SDS011;5331;48.148;16.326;2022-09-03T00:22:45;3.20;;;3.00;;
10565;SDS011;5331;48.148;16.326;2022-09-03T00:25:16;3.22;;;2.92;;
10565;SDS011;5331;48.148;16.326;2022-09-03T00:27:47;4.18;;;2.97;;
10565;SDS011;5331;48.148;16.326;2022-09-03T00:30:19;3.38;;;3.08;;
10565;SDS011;5331;48.148;16.326;2022-09-03T00:32:47;5.28;;;3.30;;
10565;SDS011;5331;48.148;16.326;2022-09-03T00:35:21;3.47;;;3.17;;
10565;SDS011;5331;48.148;16.326;2022-09-03T00:37:53;3.15;;;2.90;;
10565;SDS011;5331;48.148;16.326;2022-09-03T00:40:26;3.00;;;2.80;;
10565;SDS011;5331;48.148;16.326;2022-09-03T00:43:05;3.63;;;3.35;;
10565;SDS011;5331;48.148;16.326;2022-09-03T00:45:38;3.22;;;2.92;;
10565;SDS011;5331;48.148;16.326;2022-09-03T00:48:15;3.28;;;2.95;;
10565;SDS011;5331;48.148;16.326;2022-09-03T00:50:52;3.55;;;3.03;;
10565;SDS011;5331;48.148;16.326;2022-09-03T00:53:31;4.00;;;2.83;;
10565;SDS011;5331;48.148;16.326;2022-09-03T00:56:07;2.83;;;2.63;;
10565;SDS011;5331;48.148;16.326;2022-09-03T00:58:49;3.30;;;3.00;;
10565;SDS011;5331;48.148;16.326;2022-09-03T01:01:24;3.13;;;2.83;;
10565;SDS011;5331;48.148;16.326;2022-09-03T01:04:00;3.42;;;2.83;;
10565;SDS011;5331;48.148;16.326;2022-09-03T01:06:36;2.70;;;2.50;;
10565;SDS011;5331;48.148;16.326;2022-09-03T01:09:13;3.28;;;2.97;;
10565;SDS011;5331;48.148;16.326;2022-09-03T01:11:54;3.33;;;3.03;;
10565;SDS011;5331;48.148;16.326;2022-09-03T01:14:30;3.42;;;2.95;;
10565;SDS011;5331;48.148;16.326;2022-09-03T01:17:04;3.58;;;2.75;;
10565;SDS011;5331;48.148;16.326;2022-09-03T01:19:52;3.72;;;2.60;;
10565;SDS011;5331;48.148;16.326;2022-09-03T01:22:43;3.10;;;2.90;;
10565;SDS011;5331;48.148;16.326;2022-09-03T01:25:26;2.67;;;2.47;;
10565;SDS011;5331;48.148;16.326;2022-09-03T01:28:08;4.85;;;2.95;;
10565;SDS011;5331;48.148;16.326;2022-09-03T01:30:44;3.42;;;3.03;;
10565;SDS011;5331;48.148;16.326;2022-09-03T01:33:17;2.90;;;2.70;;
10565;SDS011;5331;48.148;16.326;2022-09-03T01:35:52;2.97;;;2.78;;
10565;SDS011;5331;48.148;16.326;2022-09-03T01:38:25;2.80;;;2.60;;
10565;SDS011;5331;48.148;16.326;2022-09-03T01:41:00;3.00;;;2.70;;
10565;SDS011;5331;48.148;16.326;2022-09-03T01:43:56;2.67;;;2.47;;
10565;SDS011;5331;48.148;16.326;2022-09-03T01:46:31;3.10;;;2.80;;
10565;SDS011;5331;48.148;16.326;2022-09-03T01:49:05;3.40;;;3.10;;
10565;SDS011;5331;48.148;16.326;2022-09-03T01:51:47;3.10;;;2.80;;
10565;SDS011;5331;48.148;16.326;2022-09-03T01:54:26;4.45;;;3.28;;
10565;SDS011;5331;48.148;16.326;2022-09-03T02:00:06;3.65;;;2.75;;
10565;SDS011;5331;48.148;16.326;2022-09-03T02:02:37;3.78;;;3.00;;
10565;SDS011;5331;48.148;16.326;2022-09-03T02:05:07;3.30;;;3.00;;
10565;SDS011;5331;48.148;16.326;2022-09-03T02:07:36;3.00;;;2.80;;
10565;SDS011;5331;48.148;16.326;2022-09-03T02:10:06;3.08;;;2.80;;
10565;SDS011;5331;48.148;16.326;2022-09-03T02:12:34;3.30;;;3.00;;
10565;SDS011;5331;48.148;16.326;2022-09-03T02:15:04;3.28;;;3.00;;
10565;SDS011;5331;48.148;16.326;2022-09-03T02:17:36;3.47;;;3.00;;
10565;SDS011;5331;48.148;16.326;2022-09-03T02:20:04;3.05;;;2.60;;
10565;SDS011;5331;48.148;16.326;2022-09-03T02:22:35;3.10;;;2.80;;
10565;SDS011;5331;48.148;16.326;2022-09-03T02:25:04;2.88;;;2.63;;
10565;SDS011;5331;48.148;16.326;2022-09-03T02:27:32;3.38;;;3.08;;
10565;SDS011;5331;48.148;16.326;2022-09-03T02:29:59;2.83;;;2.63;;
10565;SDS011;5331;48.148;16.326;2022-09-03T02:32:27;3.30;;;2.85;;
10565;SDS011;5331;48.148;16.326;2022-09-03T02:34:55;3.20;;;3.00;;
10565;SDS011;5331;48.148;16.326;2022-09-03T02:37:22;3.30;;;3.00;;
10565;SDS011;5331;48.148;16.326;2022-09-03T02:39:49;3.20;;;2.90;;
10565;SDS011;5331;48.148;16.326;2022-09-03T02:42:17;4.68;;;3.03;;
10565;SDS011;5331;48.148;16.326;2022-09-03T02:44:45;2.80;;;2.60;;
10565;SDS011;5331;48.148;16.326;2022-09-03T02:47:15;3.30;;;3.00;;
10565;SDS011;5331;48.148;16.326;2022-09-03T02:49:46;2.95;;;2.65;;
10565;SDS011;5331;48.148;16.326;2022-09-03T02:52:13;3.10;;;2.90;;
10565;SDS011;5331;48.148;16.326;2022-09-03T02:54:40;3.53;;;2.90;;
10565;SDS011;5331;48.148;16.326;2022-09-03T02:57:10;2.95;;;2.65;;
10565;SDS011;5331;48.148;16.326;2022-09-03T02:59:39;2.83;;;2.63;;
10565;SDS011;5331;48.148;16.326;2022-09-03T03:02:08;3.00;;;2.80;;
10565;SDS011;5331;48.148;16.326;2022-09-03T03:04:35;2.97;;;2.78;;
10565;SDS011;5331;48.148;16.326;2022-09-03T03:07:04;3.35;;;2.95;;
10565;SDS011;5331;48.148;16.326;2022-09-03T03:09:32;3.38;;;3.00;;
10565;SDS011;5331;48.148;16.326;2022-09-03T03:11:59;3.38;;;3.08;;
10565;SDS011;5331;48.148;16.326;2022-09-03T03:14:26;2.92;;;2.72;;
10565;SDS011;5331;48.148;16.326;2022-09-03T03:16:52;3.22;;;2.92;;
10565;SDS011;5331;48.148;16.326;2022-09-03T03:19:19;3.08;;;2.80;;
10565;SDS011;5331;48.148;16.326;2022-09-03T03:21:46;3.13;;;2.83;;
10565;SDS011;5331;48.148;16.326;2022-09-03T03:24:14;2.85;;;2.65;;
10565;SDS011;5331;48.148;16.326;2022-09-03T03:26:41;4.10;;;3.08;;
10565;SDS011;5331;48.148;16.326;2022-09-03T03:29:09;3.55;;;2.80;;
10565;SDS011;5331;48.148;16.326;2022-09-03T03:31:42;3.88;;;3.20;;
10565;SDS011;5331;48.148;16.326;2022-09-03T03:34:09;3.00;;;2.80;;
10565;SDS011;5331;48.148;16.326;2022-09-03T03:36:36;2.80;;;2.60;;
10565;SDS011;5331;48.148;16.326;2022-09-03T03:39:03;2.70;;;2.50;;
10565;SDS011;5331;48.148;16.326;2022-09-03T03:41:31;3.78;;;2.90;;
10565;SDS011;5331;48.148;16.326;2022-09-03T03:44:00;2.90;;;2.70;;
10565;SDS011;5331;48.148;16.326;2022-09-03T03:46:29;4.07;;;2.78;;
10565;SDS011;5331;48.148;16.326;2022-09-03T03:48:57;5.22;;;3.13;;
10565;SDS011;5331;48.148;16.326;2022-09-03T03:51:25;3.50;;;3.20;;
10565;SDS011;5331;48.148;16.326;2022-09-03T03:53:53;3.75;;;2.85;;
10565;SDS011;5331;48.148;16.326;2022-09-03T03:56:21;3.00;;;2.80;;
10565;SDS011;5331;48.148;16.326;2022-09-03T03:58:51;3.20;;;2.90;;
10565;SDS011;5331;48.148;16.326;2022-09-03T04:01:19;3.08;;;2.65;;
10565;SDS011;5331;48.148;16.326;2022-09-03T04:03:48;3.30;;;3.10;;
10565;SDS011;5331;48.148;16.326;2022-09-03T04:06:16;3.30;;;3.00;;
10565;SDS011;5331;48.148;16.326;2022-09-03T04:08:45;3.05;;;2.85;;
10565;SDS011;5331;48.148;16.326;2022-09-03T04:11:15;2.95;;;2.75;;
10565;SDS011;5331;48.148;16.326;2022-09-03T04:13:43;3.20;;;2.90;;
10565;SDS011;5331;48.148;16.326;2022-09-03T04:16:13;3.40;;;2.80;;
10565;SDS011;5331;48.148;16.326;2022-09-03T04:18:42;3.90;;;3.50;;
10565;SDS011;5331;48.148;16.326;2022-09-03T04:21:11;3.50;;;3.17;;
10565;SDS011;5331;48.148;16.326;2022-09-03T04:23:40;3.40;;;3.10;;
10565;SDS011;5331;48.148;16.326;2022-09-03T04:26:08;3.25;;;3.00;;
10565;SDS011;5331;48.148;16.326;2022-09-03T04:28:37;3.30;;;2.95;;
10565;SDS011;5331;48.148;16.326;2022-09-03T04:31:06;3.17;;;2.90;;
10565;SDS011;5331;48.148;16.326;2022-09-03T04:33:36;3.22;;;2.90;;
10565;SDS011;5331;48.148;16.326;2022-09-03T04:36:04;3.10;;;2.80;;
10565;SDS011;5331;48.148;16.326;2022-09-03T04:38:33;3.95;;;3.45;;
10565;SDS011;5331;48.148;16.326;2022-09-03T04:41:01;3.20;;;2.90;;
10565;SDS011;5331;48.148;16.326;2022-09-03T04:43:28;3.30;;;3.00;;
10565;SDS011;5331;48.148;16.326;2022-09-03T04:45:56;3.88;;;3.58;;
10565;SDS011;5331;48.148;16.326;2022-09-03T04:48:23;3.42;;;3.13;;
10565;SDS011;5331;48.148;16.326;2022-09-03T04:50:52;3.63;;;3.33;;
10565;SDS011;5331;48.148;16.326;2022-09-03T04:53:19;4.55;;;3.60;;
10565;SDS011;5331;48.148;16.326;2022-09-03T04:55:47;3.25;;;2.97;;
10565;SDS011;5331;48.148;16.326;2022-09-03T04:58:15;3.53;;;3.22;;
10565;SDS011;5331;48.148;16.326;2022-09-03T05:00:42;3.53;;;3.22;;
10565;SDS011;5331;48.148;16.326;2022-09-03T05:03:09;3.10;;;2.88;;
10565;SDS011;5331;48.148;16.326;2022-09-03T05:05:36;3.72;;;3.42;;
10565;SDS011;5331;48.148;16.326;2022-09-03T05:08:04;3.42;;;3.13;;
10565;SDS011;5331;48.148;16.326;2022-09-03T05:10:31;3.20;;;3.00;;
10565;SDS011;5331;48.148;16.326;2022-09-03T05:12:59;3.45;;;3.15;;
10565;SDS011;5331;48.148;16.326;2022-09-03T05:15:27;4.30;;;3.38;;
10565;SDS011;5331;48.148;16.326;2022-09-03T05:17:55;3.80;;;3.22;;
10565;SDS011;5331;48.148;16.326;2022-09-03T05:20:23;3.30;;;3.05;;
10565;SDS011;5331;48.148;16.326;2022-09-03T05:22:50;3.92;;;3.50;;
10565;SDS011;5331;48.148;16.326;2022-09-03T05:25:19;4.20;;;3.20;;
10565;SDS011;5331;48.148;16.326;2022-09-03T05:27:47;3.55;;;3.25;;
10565;SDS011;5331;48.148;16.326;2022-09-03T05:30:14;3.60;;;3.30;;
10565;SDS011;5331;48.148;16.326;2022-09-03T05:32:41;4.10;;;3.55;;
10565;SDS011;5331;48.148;16.326;2022-09-03T05:35:08;4.47;;;3.63;;
10565;SDS011;5331;48.148;16.326;2022-09-03T05:37:36;4.18;;;3.88;;
10565;SDS011;5331;48.148;16.326;2022-09-03T05:40:04;3.80;;;3.50;;
10565;SDS011;5331;48.148;16.326;2022-09-03T05:42:36;4.32;;;3.88;;
10565;SDS011;5331;48.148;16.326;2022-09-03T05:45:05;3.80;;;3.50;;
10565;SDS011;5331;48.148;16.326;2022-09-03T05:47:34;5.93;;;3.90;;
10565;SDS011;5331;48.148;16.326;2022-09-03T05:50:03;4.50;;;4.10;;
10565;SDS011;5331;48.148;16.326;2022-09-03T05:52:31;3.65;;;3.35;;
10565;SDS011;5331;48.148;16.326;2022-09-03T05:54:58;4.00;;;3.78;;
10565;SDS011;5331;48.148;16.326;2022-09-03T05:57:25;4.80;;;3.67;;
10565;SDS011;5331;48.148;16.326;2022-09-03T05:59:55;3.90;;;3.60;;
10565;SDS011;5331;48.148;16.326;2022-09-03T06:02:22;3.47;;;3.17;;
10565;SDS011;5331;48.148;16.326;2022-09-03T06:04:48;3.67;;;3.35;;
10565;SDS011;5331;48.148;16.326;2022-09-03T06:07:15;3.67;;;3.25;;
10565;SDS011;5331;48.148;16.326;2022-09-03T06:09:42;3.85;;;3.05;;
10565;SDS011;5331;48.148;16.326;2022-09-03T06:12:09;3.40;;;3.10;;
10565;SDS011;5331;48.148;16.326;2022-09-03T06:14:36;3.78;;;3.30;;
10565;SDS011;5331;48.148;16.326;2022-09-03T06:17:04;5.55;;;3.25;;
10565;SDS011;5331;48.148;16.326;2022-09-03T06:19:35;4.45;;;3.05;;
10565;SDS011;5331;48.148;16.326;2022-09-03T06:22:02;3.20;;;3.00;;
10565;SDS011;5331;48.148;16.326;2022-09-03T06:24:29;3.30;;;3.00;;
10565;SDS011;5331;48.148;16.326;2022-09-03T06:26:56;3.40;;;3.10;;
10565;SDS011;5331;48.148;16.326;2022-09-03T06:29:23;4.20;;;3.30;;
10565;SDS011;5331;48.148;16.326;2022-09-03T06:31:51;3.80;;;3.15;;
10565;SDS011;5331;48.148;16.326;2022-09-03T06:34:19;3.20;;;3.00;;
10565;SDS011;5331;48.148;16.326;2022-09-03T06:36:47;3.33;;;3.03;;
10565;SDS011;5331;48.148;16.326;2022-09-03T06:39:14;3.25;;;3.00;;
10565;SDS011;5331;48.148;16.326;2022-09-03T06:41:41;3.08;;;2.88;;
10565;SDS011;5331;48.148;16.326;2022-09-03T06:44:08;3.88;;;2.90;;
10565;SDS011;5331;48.148;16.326;2022-09-03T06:46:37;3.88;;;3.03;;
10565;SDS011;5331;48.148;16.326;2022-09-03T06:49:06;3.25;;;2.80;;
10565;SDS011;5331;48.148;16.326;2022-09-03T06:51:35;3.15;;;2.85;;
10565;SDS011;5331;48.148;16.326;2022-09-03T06:54:04;3.50;;;2.90;;
10565;SDS011;5331;48.148;16.326;2022-09-03T06:56:32;4.57;;;3.38;;
10565;SDS011;5331;48.148;16.326;2022-09-03T06:59:03;3.70;;;2.90;;
10565;SDS011;5331;48.148;16.326;2022-09-03T07:01:31;3.00;;;2.80;;
10565;SDS011;5331;48.148;16.326;2022-09-03T07:03:59;3.00;;;2.80;;
10565;SDS011;5331;48.148;16.326;2022-09-03T07:06:29;3.22;;;2.90;;
10565;SDS011;5331;48.148;16.326;2022-09-03T07:08:58;3.45;;;2.90;;
10565;SDS011;5331;48.148;16.326;2022-09-03T07:11:26;3.78;;;2.88;;
10565;SDS011;5331;48.148;16.326;2022-09-03T07:13:54;3.17;;;2.97;;
10565;SDS011;5331;48.148;16.326;2022-09-03T07:16:23;3.38;;;3.08;;
10565;SDS011;5331;48.148;16.326;2022-09-03T07:18:53;3.15;;;2.90;;
10565;SDS011;5331;48.148;16.326;2022-09-03T07:21:21;2.78;;;2.58;;
10565;SDS011;5331;48.148;16.326;2022-09-03T07:23:50;2.85;;;2.65;;
10565;SDS011;5331;48.148;16.326;2022-09-03T07:26:20;4.25;;;3.00;;
10565;SDS011;5331;48.148;16.326;2022-09-03T07:28:48;3.10;;;2.90;;
10565;SDS011;5331;48.148;16.326;2022-09-03T07:31:17;2.90;;;2.70;;
10565;SDS011;5331;48.148;16.326;2022-09-03T07:33:49;3.17;;;2.88;;
10565;SDS011;5331;48.148;16.326;2022-09-03T07:36:19;3.10;;;2.90;;
10565;SDS011;5331;48.148;16.326;2022-09-03T07:38:47;3.85;;;3.10;;
10565;SDS011;5331;48.148;16.326;2022-09-03T07:41:15;4.22;;;3.92;;
10565;SDS011;5331;48.148;16.326;2022-09-03T07:43:44;3.58;;;3.30;;
10565;SDS011;5331;48.148;16.326;2022-09-03T07:46:12;3.20;;;2.90;;
10565;SDS011;5331;48.148;16.326;2022-09-03T07:48:45;3.30;;;3.00;;
10565;SDS011;5331;48.148;16.326;2022-09-03T07:51:15;4.80;;;3.40;;
10565;SDS011;5331;48.148;16.326;2022-09-03T07:53:42;4.88;;;3.15;;
10565;SDS011;5331;48.148;16.326;2022-09-03T07:56:09;3.55;;;3.25;;
10565;SDS011;5331;48.148;16.326;2022-09-03T07:58:37;4.88;;;3.20;;
10565;SDS011;5331;48.148;16.326;2022-09-03T08:01:06;2.92;;;2.72;;
10565;SDS011;5331;48.148;16.326;2022-09-03T08:03:35;3.28;;;2.88;;
10565;SDS011;5331;48.148;16.326;2022-09-03T08:06:04;4.32;;;3.95;;
10565;SDS011;5331;48.148;16.326;2022-09-03T08:08:32;3.75;;;3.10;;
10565;SDS011;5331;48.148;16.326;2022-09-03T08:11:04;5.18;;;3.50;;
10565;SDS011;5331;48.148;16.326;2022-09-03T08:13:36;4.68;;;3.20;;
10565;SDS011;5331;48.148;16.326;2022-09-03T08:16:05;3.70;;;3.40;;
10565;SDS011;5331;48.148;16.326;2022-09-03T08:18:37;3.50;;;3.20;;
10565;SDS011;5331;48.148;16.326;2022-09-03T08:21:06;3.50;;;3.20;;
10565;SDS011;5331;48.148;16.326;2022-09-03T08:23:35;4.20;;;3.22;;
10565;SDS011;5331;48.148;16.326;2022-09-03T08:26:03;3.50;;;3.30;;
10565;SDS011;5331;48.148;16.326;2022-09-03T08:28:31;4.15;;;3.42;;
10565;SDS011;5331;48.148;16.326;2022-09-03T08:31:00;3.80;;;3.50;;
10565;SDS011;5331;48.148;16.326;2022-09-03T08:33:32;3.10;;;2.90;;
10565;SDS011;5331;48.148;16.326;2022-09-03T08:36:07;3.70;;;3.35;;
10565;SDS011;5331;48.148;16.326;2022-09-03T08:38:37;3.45;;;3.10;;
10565;SDS011;5331;48.148;16.326;2022-09-03T08:41:09;5.30;;;3.42;;
10565;SDS011;5331;48.148;16.326;2022-09-03T08:46:38;3.30;;;3.00;;
10565;SDS011;5331;48.148;16.326;2022-09-03T08:49:14;4.18;;;3.17;;
10565;SDS011;5331;48.148;16.326;2022-09-03T08:51:45;4.15;;;3.20;;
10565;SDS011;5331;48.148;16.326;2022-09-03T08:54:13;3.30;;;3.00;;
10565;SDS011;5331;48.148;16.326;2022-09-03T08:56:42;3.20;;;2.70;;
10565;SDS011;5331;48.148;16.326;2022-09-03T08:59:11;3.10;;;2.90;;
10565;SDS011;5331;48.148;16.326;2022-09-03T09:01:41;4.00;;;3.13;;
10565;SDS011;5331;48.148;16.326;2022-09-03T09:04:18;3.85;;;3.10;;
10565;SDS011;5331;48.148;16.326;2022-09-03T09:06:52;3.65;;;3.30;;
10565;SDS011;5331;48.148;16.326;2022-09-03T09:09:27;3.40;;;2.90;;
10565;SDS011;5331;48.148;16.326;2022-09-03T09:12:03;3.13;;;2.70;;
10565;SDS011;5331;48.148;16.326;2022-09-03T09:14:39;3.40;;;3.03;;
10565;SDS011;5331;48.148;16.326;2022-09-03T09:17:17;2.90;;;2.70;;
10565;SDS011;5331;48.148;16.326;2022-09-03T09:19:58;3.28;;;3.05;;
10565;SDS011;5331;48.148;16.326;2022-09-03T09:22:32;3.05;;;2.80;;
10565;SDS011;5331;48.148;16.326;2022-09-03T09:25:05;3.10;;;2.70;;
10565;SDS011;5331;48.148;16.326;2022-09-03T09:27:38;2.95;;;2.75;;
10565;SDS011;5331;48.148;16.326;2022-09-03T09:30:15;2.72;;;2.53;;
10565;SDS011;5331;48.148;16.326;2022-09-03T09:32:43;4.35;;;3.10;;
10565;SDS011;5331;48.148;16.326;2022-09-03T09:35:13;3.28;;;2.55;;
10565;SDS011;5331;48.148;16.326;2022-09-03T09:37:46;2.83;;;2.63;;
10565;SDS011;5331;48.148;16.326;2022-09-03T09:40:21;4.05;;;3.00;;
10565;SDS011;5331;48.148;16.326;2022-09-03T09:43:04;2.80;;;2.60;;
10565;SDS011;5331;48.148;16.326;2022-09-03T09:45:32;3.88;;;3.10;;
10565;SDS011;5331;48.148;16.326;2022-09-03T09:47:59;2.78;;;2.65;;
10565;SDS011;5331;48.148;16.326;2022-09-03T09:50:29;2.97;;;2.65;;
10565;SDS011;5331;48.148;16.326;2022-09-03T09:53:00;3.75;;;2.83;;
10565;SDS011;5331;48.148;16.326;2022-09-03T09:55:29;2.70;;;2.50;;
10565;SDS011;5331;48.148;16.326;2022-09-03T09:58:03;2.90;;;2.60;;
10565;SDS011;5331;48.148;16.326;2022-09-03T10:00:33;3.10;;;2.90;;
10565;SDS011;5331;48.148;16.326;2022-09-03T10:03:05;2.90;;;2.70;;
10565;SDS011;5331;48.148;16.326;2022-09-03T10:05:39;2.70;;;2.60;;
10565;SDS011;5331;48.148;16.326;2022-09-03T10:08:16;3.03;;;2.70;;
10565;SDS011;5331;48.148;16.326;2022-09-03T10:10:47;2.78;;;2.58;;
10565;SDS011;5331;48.148;16.326;2022-09-03T10:13:17;3.45;;;2.83;;
10565;SDS011;5331;48.148;16.326;2022-09-03T10:15:47;2.50;;;2.40;;
10565;SDS011;5331;48.148;16.326;2022-09-03T10:18:18;3.70;;;2.85;;
10565;SDS011;5331;48.148;16.326;2022-09-03T10:20:57;4.07;;;3.03;;
10565;SDS011;5331;48.148;16.326;2022-09-03T10:23:29;3.97;;;2.67;;
10565;SDS011;5331;48.148;16.326;2022-09-03T10:26:01;3.22;;;2.70;;
10565;SDS011;5331;48.148;16.326;2022-09-03T10:28:32;3.65;;;2.80;;
10565;SDS011;5331;48.148;16.326;2022-09-03T10:31:09;3.55;;;2.88;;
10565;SDS011;5331;48.148;16.326;2022-09-03T10:33:50;3.38;;;2.90;;
10565;SDS011;5331;48.148;16.326;2022-09-03T10:36:23;3.10;;;2.80;;
10565;SDS011;5331;48.148;16.326;2022-09-03T10:38:52;3.97;;;2.78;;
10565;SDS011;5331;48.148;16.326;2022-09-03T10:41:31;3.05;;;2.85;;
10565;SDS011;5331;48.148;16.326;2022-09-03T10:44:13;3.10;;;2.80;;
10565;SDS011;5331;48.148;16.326;2022-09-03T10:47:08;2.67;;;2.50;;
10565;SDS011;5331;48.148;16.326;2022-09-03T10:49:47;3.03;;;2.72;;
10565;SDS011;5331;48.148;16.326;2022-09-03T10:52:25;3.05;;;2.75;;
10565;SDS011;5331;48.148;16.326;2022-09-03T10:54:59;4.20;;;3.00;;
10565;SDS011;5331;48.148;16.326;2022-09-03T10:57:43;3.17;;;2.83;;
10565;SDS011;5331;48.148;16.326;2022-09-03T11:00:16;3.38;;;2.75;;
10565;SDS011;5331;48.148;16.326;2022-09-03T11:05:53;2.80;;;2.60;;
10565;SDS011;5331;48.148;16.326;2022-09-03T11:08:29;3.08;;;2.85;;
10565;SDS011;5331;48.148;16.326;2022-09-03T11:11:01;2.85;;;2.65;;
10565;SDS011;5331;48.148;16.326;2022-09-03T11:13:36;3.03;;;2.70;;
10565;SDS011;5331;48.148;16.326;2022-09-03T11:16:08;3.35;;;3.08;;
10565;SDS011;5331;48.148;16.326;2022-09-03T11:18:42;3.60;;;2.72;;
10565;SDS011;5331;48.148;16.326;2022-09-03T11:21:12;3.03;;;2.80;;
10565;SDS011;5331;48.148;16.326;2022-09-03T11:23:43;2.97;;;2.67;;
10565;SDS011;5331;48.148;16.326;2022-09-03T11:26:14;2.85;;;2.65;;
10565;SDS011;5331;48.148;16.326;2022-09-03T11:28:47;2.85;;;2.65;;
10565;SDS011;5331;48.148;16.326;2022-09-03T11:31:22;3.58;;;3.00;;
10565;SDS011;5331;48.148;16.326;2022-09-03T11:33:57;3.47;;;3.17;;
10565;SDS011;5331;48.148;16.326;2022-09-03T11:36:30;3.05;;;2.70;;
10565;SDS011;5331;48.148;16.326;2022-09-03T11:39:00;3.55;;;2.90;;
10565;SDS011;5331;48.148;16.326;2022-09-03T11:41:40;4.03;;;3.42;;
10565;SDS011;5331;48.148;16.326;2022-09-03T11:44:11;3.00;;;2.70;;
10565;SDS011;5331;48.148;16.326;2022-09-03T11:46:52;2.75;;;2.55;;
10565;SDS011;5331;48.148;16.326;2022-09-03T11:49:24;2.83;;;2.55;;
10565;SDS011;5331;48.148;16.326;2022-09-03T11:51:56;2.70;;;2.50;;
10565;SDS011;5331;48.148;16.326;2022-09-03T11:54:30;2.90;;;2.30;;
10565;SDS011;5331;48.148;16.326;2022-09-03T11:57:09;3.03;;;2.53;;
10565;SDS011;5331;48.148;16.326;2022-09-03T11:59:39;2.60;;;2.40;;
10565;SDS011;5331;48.148;16.326;2022-09-03T12:02:24;2.40;;;2.20;;
10565;SDS011;5331;48.148;16.326;2022-09-03T12:04:58;2.85;;;2.58;;
10565;SDS011;5331;48.148;16.326;2022-09-03T12:07:44;3.05;;;2.58;;
10565;SDS011;5331;48.148;16.326;2022-09-03T12:10:33;2.53;;;2.40;;
10565;SDS011;5331;48.148;16.326;2022-09-03T12:13:14;3.17;;;2.50;;
10565;SDS011;5331;48.148;16.326;2022-09-03T12:16:14;2.80;;;2.60;;
10565;SDS011;5331;48.148;16.326;2022-09-03T12:18:59;2.85;;;2.38;;
10565;SDS011;5331;48.148;16.326;2022-09-03T12:21:36;2.63;;;2.42;;
10565;SDS011;5331;48.148;16.326;2022-09-03T12:24:04;2.65;;;2.45;;
10565;SDS011;5331;48.148;16.326;2022-09-03T12:26:37;3.13;;;2.60;;
10565;SDS011;5331;48.148;16.326;2022-09-03T12:29:05;4.30;;;2.35;;
10565;SDS011;5331;48.148;16.326;2022-09-03T12:31:42;2.80;;;2.60;;
10565;SDS011;5331;48.148;16.326;2022-09-03T12:34:11;2.60;;;2.40;;
10565;SDS011;5331;48.148;16.326;2022-09-03T12:36:41;2.65;;;2.45;;
10565;SDS011;5331;48.148;16.326;2022-09-03T12:39:09;3.53;;;2.30;;
10565;SDS011;5331;48.148;16.326;2022-09-03T12:41:45;2.60;;;2.40;;
10565;SDS011;5331;48.148;16.326;2022-09-03T12:44:24;2.60;;;2.50;;
10565;SDS011;5331;48.148;16.326;2022-09-03T12:46:58;2.60;;;2.40;;
10565;SDS011;5331;48.148;16.326;2022-09-03T12:49:26;2.58;;;2.38;;
10565;SDS011;5331;48.148;16.326;2022-09-03T12:51:59;2.50;;;2.30;;
10565;SDS011;5331;48.148;16.326;2022-09-03T12:54:35;3.35;;;2.28;;
10565;SDS011;5331;48.148;16.326;2022-09-03T12:57:10;2.45;;;2.35;;
10565;SDS011;5331;48.148;16.326;2022-09-03T12:59:43;2.20;;;2.10;;
10565;SDS011;5331;48.148;16.326;2022-09-03T13:02:13;2.60;;;2.38;;
10565;SDS011;5331;48.148;16.326;2022-09-03T13:04:45;3.85;;;2.50;;
10565;SDS011;5331;48.148;16.326;2022-09-03T13:07:13;2.50;;;2.30;;
10565;SDS011;5331;48.148;16.326;2022-09-03T13:09:47;2.72;;;2.50;;
10565;SDS011;5331;48.148;16.326;2022-09-03T13:12:27;2.40;;;2.30;;
10565;SDS011;5331;48.148;16.326;2022-09-03T13:14:55;2.88;;;2.50;;
10565;SDS011;5331;48.148;16.326;2022-09-03T13:17:29;2.40;;;2.30;;
10565;SDS011;5331;48.148;16.326;2022-09-03T13:20:21;2.30;;;2.10;;
10565;SDS011;5331;48.148;16.326;2022-09-03T13:22:58;2.50;;;2.30;;
10565;SDS011;5331;48.148;16.326;2022-09-03T13:25:45;2.35;;;2.25;;
10565;SDS011;5331;48.148;16.326;2022-09-03T13:28:24;4.97;;;2.58;;
10565;SDS011;5331;48.148;16.326;2022-09-03T13:31:07;2.60;;;2.40;;
10565;SDS011;5331;48.148;16.326;2022-09-03T13:33:48;2.55;;;2.35;;
10565;SDS011;5331;48.148;16.326;2022-09-03T13:36:20;2.60;;;2.50;;
10565;SDS011;5331;48.148;16.326;2022-09-03T13:38:52;2.60;;;2.40;;
10565;SDS011;5331;48.148;16.326;2022-09-03T13:41:27;2.53;;;2.40;;
10565;SDS011;5331;48.148;16.326;2022-09-03T13:44:02;2.60;;;2.40;;
10565;SDS011;5331;48.148;16.326;2022-09-03T13:46:39;2.45;;;2.35;;
10565;SDS011;5331;48.148;16.326;2022-09-03T13:49:14;3.20;;;2.67;;
10565;SDS011;5331;48.148;16.326;2022-09-03T13:52:04;2.50;;;2.30;;
10565;SDS011;5331;48.148;16.326;2022-09-03T13:54:41;2.50;;;2.30;;
10565;SDS011;5331;48.148;16.326;2022-09-03T13:57:19;2.55;;;2.40;;
10565;SDS011;5331;48.148;16.326;2022-09-03T13:59:57;3.00;;;2.50;;
10565;SDS011;5331;48.148;16.326;2022-09-03T14:02:30;2.45;;;2.35;;
10565;SDS011;5331;48.148;16.326;2022-09-03T14:05:06;3.20;;;2.90;;
10565;SDS011;5331;48.148;16.326;2022-09-03T14:07:43;4.10;;;3.70;;
10565;SDS011;5331;48.148;16.326;2022-09-03T14:10:22;5.15;;;3.45;;
10565;SDS011;5331;48.148;16.326;2022-09-03T14:12:54;3.00;;;2.80;;
10565;SDS011;5331;48.148;16.326;2022-09-03T14:15:34;2.63;;;2.42;;
10565;SDS011;5331;48.148;16.326;2022-09-03T14:18:09;3.15;;;2.70;;
10565;SDS011;5331;48.148;16.326;2022-09-03T14:20:43;3.22;;;2.30;;
10565;SDS011;5331;48.148;16.326;2022-09-03T14:23:22;2.83;;;2.50;;
10565;SDS011;5331;48.148;16.326;2022-09-03T14:25:56;2.75;;;2.30;;
10565;SDS011;5331;48.148;16.326;2022-09-03T14:28:28;2.88;;;2.60;;
10565;SDS011;5331;48.148;16.326;2022-09-03T14:31:03;3.40;;;2.50;;
10565;SDS011;5331;48.148;16.326;2022-09-03T14:33:38;2.45;;;2.25;;
10565;SDS011;5331;48.148;16.326;2022-09-03T14:36:14;3.20;;;2.55;;
10565;SDS011;5331;48.148;16.326;2022-09-03T14:39:11;2.45;;;2.25;;
10565;SDS011;5331;48.148;16.326;2022-09-03T14:42:12;4.05;;;2.50;;
10565;SDS011;5331;48.148;16.326;2022-09-03T14:47:53;2.67;;;2.47;;
10565;SDS011;5331;48.148;16.326;2022-09-03T14:50:39;2.80;;;2.60;;
10565;SDS011;5331;48.148;16.326;2022-09-03T14:56:12;2.47;;;2.28;;
10565;SDS011;5331;48.148;16.326;2022-09-03T14:58:58;2.78;;;2.60;;
10565;SDS011;5331;48.148;16.326;2022-09-03T15:01:35;2.35;;;2.25;;
10565;SDS011;5331;48.148;16.326;2022-09-03T15:04:16;2.28;;;2.17;;
10565;SDS011;5331;48.148;16.326;2022-09-03T15:07:03;3.08;;;2.50;;
10565;SDS011;5331;48.148;16.326;2022-09-03T15:09:44;3.28;;;2.67;;
10565;SDS011;5331;48.148;16.326;2022-09-03T15:12:20;3.17;;;2.47;;
10565;SDS011;5331;48.148;16.326;2022-09-03T15:14:55;3.33;;;2.40;;
10565;SDS011;5331;48.148;16.326;2022-09-03T15:17:29;3.28;;;3.00;;
10565;SDS011;5331;48.148;16.326;2022-09-03T15:20:13;2.75;;;2.50;;
10565;SDS011;5331;48.148;16.326;2022-09-03T15:25:57;2.88;;;2.58;;
10565;SDS011;5331;48.148;16.326;2022-09-03T15:28:48;3.08;;;2.60;;
10565;SDS011;5331;48.148;16.326;2022-09-03T15:31:32;2.92;;;2.70;;
10565;SDS011;5331;48.148;16.326;2022-09-03T15:34:12;2.75;;;2.33;;
10565;SDS011;5331;48.148;16.326;2022-09-03T15:36:51;3.30;;;2.55;;
10565;SDS011;5331;48.148;16.326;2022-09-03T15:39:22;2.60;;;2.40;;